Weather History for KRPJ - February, 2012

Change the Weather History Date:

Wednesday, February 8, 2012

  Actual Average (KRFD) Record (KRFD)
Temperature  
Mean Temperature 26 °F 24 °F  
Max Temperature 32 °F 32 °F 58 °F (1990)
Min Temperature 19 °F 16 °F -20 °F (1985)
Degree Days  
Heating Degree Days 40 41  
Month to date heating degree days 335  
Since 1 July heating degree days 4244  
Cooling Degree Days 0 0  
Month to date cooling degree days 0  
Year to date cooling degree days 0  
Moisture  
Dew Point 20 °F    
Average Humidity 74    
Maximum Humidity 88    
Minimum Humidity 62    
Precipitation  
Precipitation 0.00 in 0.04 in 0.55 in (1940)
Month to date precipitation 0.33  
Year to date precipitation 1.70  
Snow  
Snow 0.00 in 0.30 in 4.00 in (1940)
Month to date snowfall 2.5  
Since 1 July snowfall 25.8  
Snow Depth -    
Sea Level Pressure  
Sea Level Pressure 30.37 in    
Wind  
Wind Speed 9 mph (NW)    
Max Wind Speed 13 mph    
Max Gust Speed 21 mph    
Visibility 10 miles    
Events      
T = Trace of Precipitation, MM = Missing Value Source: NWS Daily Summary

Daily Weather History Graph

Daily Weather History Graph

Search for Another Location

Airport or City:

Trip Planner

Search our weather history database for the weather conditions in past years. The results will help you decide how hot, cold, wet, or windy it might be!

Date:

Astronomy

Feb. 08, 2012 Rise Set
Actual Time 7:01 AM CST 5:19 PM CST
Civil Twilight 6:32 AM CST 5:48 PM CST
Nautical Twilight 5:59 AM CST 6:21 PM CST
Astronomical Twilight 5:27 AM CST 6:54 PM CST
Moon 6:41 PM CST (2/8) 7:03 AM CST (2/8)
Length of Visible Light 11h 16m
Length of Day
10h 18m
Full, 99% of the Moon is Illuminated
Feb 8
Full
Feb 14
Last Quarter
Feb 21
New
Feb 29
First Quarter
Mar 8
Full

Hourly Weather History & Observations

Time (CST) Temp. Windchill Dew Point Humidity Pressure Visibility Wind Dir Wind Speed Gust Speed Precip Events Conditions
12:15 AM 26.4 °F 16.6 °F 20.5 °F 78% 30.40 in 10.0 mi North 10.4 mph - N/A   Unknown
12:35 AM 26.2 °F 17.8 °F 20.5 °F 79% 30.40 in 10.0 mi North 8.1 mph - N/A   Unknown
12:55 AM 26.2 °F 16.4 °F 20.3 °F 78% 30.40 in 10.0 mi North 10.4 mph - N/A   Unknown
1:15 AM 25.9 °F 16.6 °F 19.9 °F 78% 30.39 in 10.0 mi North 9.2 mph - N/A   Unknown
1:35 AM 25.7 °F 15.1 °F 19.9 °F 79% 30.39 in 10.0 mi North 11.5 mph - N/A   Unknown
1:55 AM 25.7 °F 15.7 °F 20.1 °F 79% 30.39 in 10.0 mi North 10.4 mph - N/A   Unknown
2:15 AM 25.5 °F 15.5 °F 20.1 °F 80% 30.39 in 10.0 mi North 10.4 mph - N/A   Unknown
2:35 AM 25.5 °F 16.2 °F 20.1 °F 80% 30.39 in 10.0 mi North 9.2 mph - N/A   Unknown
2:55 AM 25.5 °F 15.5 °F 20.1 °F 80% 30.39 in 10.0 mi North 10.4 mph - N/A   Unknown
3:15 AM 25.3 °F 14.1 °F 19.6 °F 79% 30.39 in 10.0 mi North 12.7 mph - N/A   Unknown
3:35 AM 25.2 °F 13.9 °F 19.2 °F 78% 30.38 in 10.0 mi North 12.7 mph - N/A   Overcast
3:55 AM 24.8 °F 14.0 °F 19.4 °F 80% 30.39 in 10.0 mi North 11.5 mph - N/A   Unknown
4:15 AM 24.8 °F 14.0 °F 19.2 °F 79% 30.38 in 10.0 mi North 11.5 mph - N/A   Unknown
4:35 AM 24.8 °F 13.4 °F 19.0 °F 79% 30.39 in 10.0 mi North 12.7 mph - N/A   Unknown
4:55 AM 24.3 °F 13.3 °F 18.7 °F 79% 30.39 in 10.0 mi North 11.5 mph - N/A   Unknown
5:15 AM 23.7 °F 13.3 °F 18.1 °F 79% 30.40 in 10.0 mi North 10.4 mph - N/A   Unknown
5:35 AM 23.4 °F 13.5 °F 18.1 °F 80% 30.40 in 10.0 mi NNW 9.2 mph - N/A   Unknown
5:55 AM 22.5 °F 11.7 °F 17.6 °F 82% 30.40 in 10.0 mi North 10.4 mph - N/A   Unknown
6:15 AM 22.1 °F 11.3 °F 17.4 °F 82% 30.40 in 10.0 mi North 10.4 mph - N/A   Unknown
6:35 AM 21.6 °F 13.0 °F 17.1 °F 83% 30.40 in 10.0 mi NNW 6.9 mph - N/A   Unknown
6:55 AM 20.8 °F 12.1 °F 16.7 °F 84% 30.41 in 10.0 mi North 6.9 mph - N/A   Unknown
7:15 AM 19.8 °F 10.8 °F 16.2 °F 86% 30.41 in 10.0 mi North 6.9 mph - N/A   Unknown
7:35 AM 19.8 °F 13.2 °F 16.2 °F 86% 30.41 in 10.0 mi NW 4.6 mph - N/A   Unknown
7:55 AM 20.7 °F 14.2 °F 16.9 °F 85% 30.41 in 10.0 mi NNW 4.6 mph - N/A   Unknown
8:15 AM 22.6 °F 14.3 °F 17.6 °F 81% 30.41 in 10.0 mi NNW 6.9 mph - N/A   Unknown
8:35 AM 23.9 °F 13.5 °F 17.6 °F 77% 30.41 in 10.0 mi NNW 10.4 mph - N/A   Unknown
8:55 AM 24.8 °F 14.6 °F 18.1 °F 76% 30.41 in 10.0 mi NNW 10.4 mph - N/A   Clear
9:15 AM 25.9 °F 16.0 °F 18.3 °F 73% 30.41 in 10.0 mi NNW 10.4 mph - N/A   Clear
9:35 AM 27.3 °F 18.4 °F 18.3 °F 69% 30.41 in 10.0 mi NNW 9.2 mph - N/A   Clear
9:55 AM 28.2 °F 18.9 °F 17.1 °F 63% 30.41 in 10.0 mi North 10.4 mph - N/A   Clear
10:15 AM 29.3 °F 20.8 °F 17.8 °F 62% 30.41 in 10.0 mi North 9.2 mph - N/A   Clear
10:35 AM 28.6 °F 20.7 °F 17.2 °F 63% 30.41 in 10.0 mi NNW 8.1 mph - N/A   Clear
10:55 AM 28.9 °F 21.1 °F 17.8 °F 63% 30.41 in 10.0 mi NNW 8.1 mph - N/A   Clear
11:15 AM 29.3 °F 22.3 °F 18.3 °F 64% 30.40 in 10.0 mi NNW 6.9 mph - N/A   Clear
11:35 AM 29.7 °F 22.0 °F 19.2 °F 65% 30.39 in 10.0 mi WNW 8.1 mph - N/A   Unknown
11:55 AM 30.0 °F 22.4 °F 19.6 °F 65% 30.39 in 10.0 mi West 8.1 mph - N/A   Unknown
12:15 PM 30.2 °F 21.9 °F 18.9 °F 63% 30.38 in 10.0 mi WNW 9.2 mph - N/A   Unknown
12:35 PM 29.8 °F 24.9 °F 18.3 °F 62% 30.37 in 10.0 mi WNW 4.6 mph - N/A   Unknown
12:55 PM 30.9 °F 27.5 °F 20.1 °F 64% 30.36 in 10.0 mi West 3.5 mph - N/A   Unknown
1:15 PM 31.5 °F 23.5 °F 20.5 °F 64% 30.35 in 10.0 mi West 9.2 mph - N/A   Unknown
1:35 PM 31.5 °F 23.5 °F 19.9 °F 62% 30.35 in 10.0 mi West 9.2 mph - N/A   Unknown
1:55 PM 31.6 °F 24.4 °F 19.9 °F 62% 30.34 in 10.0 mi West 8.1 mph - N/A   Unknown
2:15 PM 30.2 °F 21.9 °F 19.9 °F 66% 30.34 in 10.0 mi West 9.2 mph - N/A   Unknown
2:35 PM 31.1 °F 23.7 °F 19.6 °F 62% 30.34 in 10.0 mi WNW 8.1 mph - N/A   Unknown
2:55 PM 32.0 °F 24.8 °F 20.1 °F 62% 30.34 in 10.0 mi WNW 8.1 mph - N/A   Unknown
3:15 PM 32.0 °F 24.2 °F 21.2 °F 64% 30.33 in 10.0 mi West 9.2 mph 20.7 mph N/A   Unknown
3:35 PM 31.8 °F 23.9 °F 21.0 °F 64% 30.33 in 10.0 mi West 9.2 mph - N/A   Unknown
3:55 PM 31.5 °F 22.9 °F 20.7 °F 64% 30.33 in 10.0 mi West 10.4 mph - N/A   Unknown
4:15 PM 30.2 °F 22.6 °F 20.7 °F 68% 30.33 in 10.0 mi WNW 8.1 mph - N/A   Unknown
4:35 PM 30.6 °F 22.4 °F 20.1 °F 65% 30.32 in 10.0 mi West 9.2 mph - N/A   Unknown
4:55 PM 30.0 °F 23.2 °F 21.6 °F 71% 30.32 in 10.0 mi West 6.9 mph - N/A   Clear
5:15 PM 29.3 °F 21.5 °F 21.9 °F 74% 30.32 in 10.0 mi West 8.1 mph - N/A   Clear
5:35 PM 28.6 °F 22.4 °F 21.9 °F 76% 30.32 in 10.0 mi West 5.8 mph - N/A   Clear
5:55 PM 27.5 °F 21.1 °F 22.6 °F 82% 30.31 in 10.0 mi West 5.8 mph - N/A   Clear
6:15 PM 27.5 °F 21.1 °F 23.7 °F 86% 30.32 in 10.0 mi WSW 5.8 mph - N/A   Clear
6:35 PM 27.3 °F 19.9 °F 24.3 °F 88% 30.32 in 10.0 mi WSW 6.9 mph - N/A   Clear
6:55 PM 27.5 °F 20.2 °F 23.9 °F 86% 30.32 in 10.0 mi WSW 6.9 mph - N/A   Clear
7:15 PM 27.3 °F 19.9 °F 23.0 °F 84% 30.32 in 10.0 mi WSW 6.9 mph - N/A   Clear
7:35 PM 27.1 °F 18.2 °F 21.7 °F 80% 30.32 in 10.0 mi West 9.2 mph - N/A   Clear
7:55 PM 26.6 °F 19.1 °F 21.2 °F 80% 30.32 in 10.0 mi West 6.9 mph - N/A   Clear
8:15 PM 26.2 °F 18.6 °F 21.6 °F 82% 30.32 in 10.0 mi West 6.9 mph - N/A   Clear
8:35 PM 25.7 °F 18.0 °F 21.6 °F 84% 30.33 in 10.0 mi West 6.9 mph - N/A   Clear
8:55 PM 25.5 °F 16.9 °F 21.7 °F 86% 30.32 in 10.0 mi West 8.1 mph - N/A   Clear
9:15 PM 25.5 °F 16.2 °F 21.2 °F 84% 30.33 in 10.0 mi West 9.2 mph - N/A   Clear
9:35 PM 24.8 °F 16.1 °F 21.0 °F 86% 30.32 in 10.0 mi West 8.1 mph - N/A   Clear
9:55 PM 24.4 °F 16.5 °F 21.0 °F 87% 30.32 in 10.0 mi West 6.9 mph - N/A   Clear
10:15 PM 23.9 °F 15.0 °F 21.0 °F 89% 30.32 in 10.0 mi West 8.1 mph - N/A   Clear
10:35 PM 23.2 °F 14.1 °F 20.3 °F 89% 30.32 in 10.0 mi West 8.1 mph - N/A   Clear
10:55 PM 22.6 °F 14.3 °F 20.1 °F 90% 30.32 in 10.0 mi West 6.9 mph - N/A   Clear
11:15 PM 22.6 °F 14.3 °F 20.1 °F 90% 30.32 in 10.0 mi West 6.9 mph - N/A   Clear
11:55 PM 22.1 °F 13.7 °F 20.1 °F 92% 30.31 in 10.0 mi WSW 6.9 mph - N/A   Clear